createdAt,value
2019-04-06T00:01:43.708Z,1008.7
2019-04-06T00:07:14.491Z,1008.8
2019-04-06T00:12:45.317Z,1008.8
2019-04-06T00:18:16.153Z,1008.9
2019-04-06T00:23:46.830Z,1008.9
2019-04-06T00:29:17.591Z,1008.8
2019-04-06T00:34:48.340Z,1008.8
2019-04-06T00:40:19.054Z,1008.9
2019-04-06T00:45:49.790Z,1008.9
2019-04-06T00:51:20.421Z,1009
2019-04-06T00:56:51.191Z,1009
2019-04-06T01:02:21.869Z,1009
2019-04-06T01:07:52.559Z,1009
2019-04-06T01:13:23.301Z,1009
2019-04-06T01:18:54.019Z,1009
2019-04-06T01:24:24.759Z,1009.1
2019-04-06T01:29:55.374Z,1009.1
2019-04-06T01:35:26.135Z,1009.1
2019-04-06T01:40:56.725Z,1009.1
2019-04-06T01:46:27.417Z,1009.1
2019-04-06T01:51:58.097Z,1009
2019-04-06T01:57:28.767Z,1008.9
2019-04-06T02:02:59.425Z,1008.9
2019-04-06T02:08:30.116Z,1009
2019-04-06T02:14:00.743Z,1008.9
2019-04-06T02:19:31.417Z,1008.9
2019-04-06T02:25:02.150Z,1009
2019-04-06T02:30:32.764Z,1008.9
2019-04-06T02:36:03.427Z,1008.9
2019-04-06T02:41:34.073Z,1009
2019-04-06T02:47:04.784Z,1009
2019-04-06T02:52:35.468Z,1009.2
2019-04-06T02:58:06.145Z,1009.1
2019-04-06T03:03:36.736Z,1009.1
2019-04-06T03:09:07.408Z,1009.1
2019-04-06T03:14:38.404Z,1009
2019-04-06T03:20:08.861Z,1008.9
2019-04-06T03:25:40.032Z,1008.9
2019-04-06T03:31:10.426Z,1008.8
2019-04-06T03:36:40.830Z,1008.7
2019-04-06T03:42:11.771Z,1008.7
2019-04-06T03:47:42.202Z,1008.7
2019-04-06T03:53:12.940Z,1008.8
2019-04-06T03:58:43.666Z,1008.8
2019-04-06T04:04:19.477Z,1008.7
2019-04-06T04:09:51.055Z,1008.8
2019-04-06T04:15:22.566Z,1008.7
2019-04-06T04:20:54.124Z,1008.7
2019-04-06T04:26:25.680Z,1008.7
2019-04-06T04:31:57.148Z,1008.7
2019-04-06T04:37:28.700Z,1008.7
2019-04-06T04:43:00.291Z,1008.6
2019-04-06T04:48:31.720Z,1008.7
2019-04-06T04:54:03.201Z,1008.8
2019-04-06T04:59:34.141Z,1008.8
2019-04-06T05:05:04.840Z,1008.8
2019-04-06T05:10:35.657Z,1008.7
2019-04-06T05:16:06.227Z,1008.8
2019-04-06T05:21:38.354Z,1008.7
2019-04-06T05:27:07.531Z,1008.7
2019-04-06T05:32:38.278Z,1008.8
2019-04-06T05:38:08.941Z,1008.8
2019-04-06T05:43:39.722Z,1008.7
2019-04-06T05:49:10.301Z,1008.7
2019-04-06T05:54:40.991Z,1008.6
2019-04-06T06:00:12.240Z,1008.6
2019-04-06T06:05:43.842Z,1008.6
2019-04-06T06:11:15.342Z,1008.6
2019-04-06T06:16:46.944Z,1008.6
2019-04-06T06:22:18.542Z,1008.7
2019-04-06T06:27:50.133Z,1008.5
2019-04-06T06:33:21.781Z,1008.4
2019-04-06T06:38:53.404Z,1008.3
2019-04-06T06:44:25.016Z,1008.2
2019-04-06T06:49:56.687Z,1008.1
2019-04-06T06:55:28.449Z,1008
2019-04-06T07:01:00.199Z,1008
2019-04-06T07:06:31.841Z,1007.9
2019-04-06T07:12:03.565Z,1007.9
2019-04-06T07:17:35.302Z,1007.8
2019-04-06T07:23:06.923Z,1007.9
2019-04-06T07:28:39.336Z,1007.6
2019-04-06T07:34:10.360Z,1007.7
2019-04-06T07:39:42.070Z,1007.6
2019-04-06T07:45:13.906Z,1007.4
2019-04-06T07:50:45.489Z,1007.2
2019-04-06T07:56:17.254Z,1007.1
2019-04-06T08:01:49.219Z,1006.8
2019-04-06T08:07:21.314Z,1006.5
2019-04-06T08:12:53.404Z,1006.3
2019-04-06T08:18:25.606Z,1006
2019-04-06T08:23:57.922Z,1005.9
2019-04-06T08:29:30.266Z,1006
2019-04-06T08:51:39.977Z,1005.4
2019-04-06T08:57:12.566Z,1005.2
2019-04-06T09:02:45.223Z,1005.2
2019-04-06T09:08:17.991Z,1005.1
2019-04-06T09:13:50.753Z,1004.9
2019-04-06T09:19:23.371Z,1004.8
2019-04-06T09:24:56.291Z,1004.7
2019-04-06T09:30:29.343Z,1004.8
2019-04-06T09:36:02.466Z,1004.8
2019-04-06T09:41:34.590Z,1004.8
2019-04-06T09:47:07.347Z,1004.9
2019-04-06T09:52:39.454Z,1004.8
2019-04-06T09:58:11.828Z,1004.8
2019-04-06T10:03:44.327Z,1004.7
2019-04-06T10:09:21.480Z,1004.6
2019-04-06T10:14:54.049Z,1004.6
2019-04-06T10:20:26.677Z,1004.6
2019-04-06T10:25:59.373Z,1004.4
2019-04-06T10:31:32.113Z,1004.4
2019-04-06T10:37:04.750Z,1004.3
2019-04-06T10:42:37.416Z,1004.3
2019-04-06T10:48:10.078Z,1004.1
2019-04-06T10:53:42.850Z,1004
2019-04-06T10:59:15.488Z,1004.1
2019-04-06T11:04:48.276Z,1004
2019-04-06T11:10:21.250Z,1004
2019-04-06T11:15:53.886Z,1003.7
2019-04-06T11:21:26.786Z,1003.7
2019-04-06T11:26:59.740Z,1003.5
2019-04-06T11:32:33.044Z,1003.5
2019-04-06T11:38:05.879Z,1003.3
2019-04-06T11:43:38.946Z,1003.2
2019-04-06T11:49:12.349Z,1003.1
2019-04-06T11:54:45.469Z,1003.1
2019-04-06T12:00:24.976Z,1002.7
2019-04-06T12:05:52.072Z,1002.5
2019-04-06T12:11:25.810Z,1002.5
2019-04-06T12:16:59.396Z,1002.4
2019-04-06T12:22:33.094Z,1002.4
2019-04-06T12:28:06.932Z,1002.2
2019-04-06T12:33:40.927Z,1002
2019-04-06T12:39:15.110Z,1001.8
2019-04-06T12:44:48.757Z,1001.9
2019-04-06T12:50:22.759Z,1001.9
2019-04-06T12:55:56.780Z,1001.8
2019-04-06T13:01:30.953Z,1001.6
2019-04-06T13:07:05.278Z,1001.5
2019-04-06T13:12:39.981Z,1001.4
2019-04-06T13:18:13.997Z,1001.1
2019-04-06T13:23:48.568Z,1001.1
2019-04-06T13:29:22.859Z,1001
2019-04-06T13:34:58.060Z,1000.8
2019-04-06T13:40:36.399Z,1000.7
2019-04-06T13:46:10.840Z,1000.5
2019-04-06T13:51:46.789Z,1000.4
2019-04-06T13:57:19.874Z,1000.7
2019-04-06T14:02:53.874Z,1000.6
2019-04-06T14:08:27.923Z,1000.4
2019-04-06T14:14:02.398Z,1000.4
2019-04-06T14:19:41.558Z,1000.3
2019-04-06T14:25:15.968Z,1000.2
2019-04-06T14:30:50.443Z,1000.2
2019-04-06T14:36:25.036Z,1000.1
2019-04-06T14:41:59.663Z,1000.2
2019-04-06T14:47:34.105Z,1000
2019-04-06T14:53:08.625Z,1000.1
2019-04-06T14:58:47.465Z,1000.4
2019-04-06T15:04:21.389Z,1000.8
2019-04-06T15:09:55.409Z,1000.7
2019-04-06T15:15:28.790Z,1000.9
2019-04-06T15:21:02.273Z,1000.9
2019-04-06T15:26:35.748Z,1001.1
2019-04-06T15:32:09.304Z,1001
2019-04-06T15:37:42.778Z,1001.1
2019-04-06T15:43:18.703Z,1001.1
2019-04-06T15:48:49.887Z,1001.2
2019-04-06T15:54:23.509Z,1001.1
2019-04-06T15:59:58.558Z,1001.1
2019-04-06T16:05:30.327Z,1001.1
2019-04-06T16:11:03.690Z,1001.1
2019-04-06T16:16:37.016Z,1001.1
2019-04-06T16:22:10.375Z,1001.2
2019-04-06T16:27:43.753Z,1001.3
2019-04-06T16:33:17.050Z,1001.3
2019-04-06T16:38:50.629Z,1001.3
2019-04-06T16:44:23.599Z,1001.3
2019-04-06T16:49:56.738Z,1001.1
2019-04-06T16:55:30.161Z,1001.2
2019-04-06T17:01:04.154Z,1001.3
2019-04-06T17:06:37.205Z,1001.4
2019-04-06T17:12:10.090Z,1001.5
2019-04-06T17:17:44.335Z,1001.5
2019-04-06T17:23:17.126Z,1001.7
2019-04-06T17:28:49.946Z,1001.8
2019-04-06T17:34:23.076Z,1001.9
2019-04-06T17:39:56.144Z,1002
2019-04-06T17:45:30.211Z,1002.1
2019-04-06T17:51:01.350Z,1002.1
2019-04-06T17:56:33.401Z,1002.2
2019-04-06T18:02:05.860Z,1002.3
2019-04-06T18:07:37.681Z,1002.5
2019-04-06T18:13:09.224Z,1002.5
2019-04-06T18:18:41.062Z,1002.7
2019-04-06T18:24:13.190Z,1002.7
2019-04-06T18:29:45.359Z,1002.8
2019-04-06T18:35:16.743Z,1003.1
2019-04-06T18:40:48.417Z,1003.6
2019-04-06T18:46:20.047Z,1003.7
2019-04-06T18:51:51.733Z,1003.8
2019-04-06T18:57:23.197Z,1003.9
2019-04-06T19:02:54.662Z,1004
2019-04-06T19:08:26.111Z,1004
2019-04-06T19:13:57.696Z,1004
2019-04-06T19:19:29.684Z,1004.1
2019-04-06T19:25:01.230Z,1004
2019-04-06T19:30:33.360Z,1004.1
2019-04-06T19:36:05.690Z,1004.2
2019-04-06T19:41:38.150Z,1004.1
2019-04-06T19:47:10.814Z,1004.1
2019-04-06T19:52:42.771Z,1004.2
2019-04-06T19:58:15.293Z,1004.5
2019-04-06T20:03:48.882Z,1004.6
2019-04-06T20:09:19.763Z,1004.8
2019-04-06T20:14:51.845Z,1004.5
2019-04-06T20:20:24.061Z,1004.6
2019-04-06T20:25:56.737Z,1005.1
2019-04-06T20:31:28.948Z,1004.8
2019-04-06T20:37:00.745Z,1005.1
2019-04-06T20:42:32.935Z,1005.1
2019-04-06T20:48:05.177Z,1005
2019-04-06T20:53:37.521Z,1005
2019-04-06T20:59:09.513Z,1004.9
2019-04-06T21:04:41.712Z,1004.9
2019-04-06T21:10:13.980Z,1004.7
2019-04-06T21:15:46.107Z,1004.8
2019-04-06T21:21:17.783Z,1004.8
2019-04-06T21:26:49.598Z,1004.6
2019-04-06T21:32:21.756Z,1004.7
2019-04-06T21:37:54.241Z,1004.8
2019-04-06T21:43:24.631Z,1004.8
2019-04-06T21:48:56.907Z,1004.7
2019-04-06T21:54:28.846Z,1004.6
2019-04-06T22:00:02.085Z,1004.5
2019-04-06T22:05:34.501Z,1004.4
2019-04-06T22:11:06.182Z,1004.6
2019-04-06T22:16:38.105Z,1004.8
2019-04-06T22:22:09.298Z,1004.9
2019-04-06T22:27:41.329Z,1004.6
2019-04-06T22:33:13.893Z,1004.5
2019-04-06T22:38:46.193Z,1004.6
2019-04-06T22:44:19.884Z,1004.6
2019-04-06T22:49:51.039Z,1004.8
2019-04-06T22:55:23.206Z,1004.8
2019-04-06T23:00:55.521Z,1005.1
2019-04-06T23:06:26.825Z,1005.1
2019-04-06T23:11:58.327Z,1005.1
2019-04-06T23:17:29.979Z,1005.2
2019-04-06T23:23:02.183Z,1005.3
2019-04-06T23:28:33.102Z,1005.4
2019-04-06T23:34:04.367Z,1005.3
2019-04-06T23:39:35.779Z,1005.4
2019-04-06T23:45:07.927Z,1005.3
2019-04-06T23:50:39.518Z,1005.2
2019-04-06T23:56:10.835Z,1005.2
